sensor_id;sensor_type;location;lat;lon;timestamp;P1;durP1;ratioP1;P2;durP2;ratioP2
74483;SDS011;62942;52.462;10.846;2022-08-19T00:00:12;14;;;20.7;;
74483;SDS011;62942;52.462;10.846;2022-08-19T00:01:12;13.3;;;17.7;;
74483;SDS011;62942;52.462;10.846;2022-08-19T00:02:12;13.7;;;17.9;;
74483;SDS011;62942;52.462;10.846;2022-08-19T00:03:12;13.9;;;18.6;;
74483;SDS011;62942;52.462;10.846;2022-08-19T00:04:13;13.9;;;22.1;;
74483;SDS011;62942;52.462;10.846;2022-08-19T00:05:12;13.4;;;19.4;;
74483;SDS011;62942;52.462;10.846;2022-08-19T00:06:12;13.6;;;19.3;;
74483;SDS011;62942;52.462;10.846;2022-08-19T00:07:22;13.5;;;20.3;;
74483;SDS011;62942;52.462;10.846;2022-08-19T00:08:32;13.9;;;19.4;;
74483;SDS011;62942;52.462;10.846;2022-08-19T00:09:42;14;;;20.5;;
74483;SDS011;62942;52.462;10.846;2022-08-19T00:10:52;13.7;;;20.6;;
74483;SDS011;62942;52.462;10.846;2022-08-19T00:11:53;13.6;;;21.1;;
74483;SDS011;62942;52.462;10.846;2022-08-19T00:13:02;13.4;;;18.1;;
74483;SDS011;62942;52.462;10.846;2022-08-19T00:14:13;13.5;;;20.6;;
74483;SDS011;62942;52.462;10.846;2022-08-19T00:15:14;14;;;19.1;;
74483;SDS011;62942;52.462;10.846;2022-08-19T00:16:22;14.2;;;21.4;;
74483;SDS011;62942;52.462;10.846;2022-08-19T00:17:22;13.7;;;19;;
74483;SDS011;62942;52.462;10.846;2022-08-19T00:18:32;13.4;;;18.8;;
74483;SDS011;62942;52.462;10.846;2022-08-19T00:19:32;14.1;;;21.4;;
74483;SDS011;62942;52.462;10.846;2022-08-19T00:20:32;14.2;;;21.1;;
74483;SDS011;62942;52.462;10.846;2022-08-19T00:21:42;14.1;;;18.9;;
74483;SDS011;62942;52.462;10.846;2022-08-19T00:22:52;13.8;;;18.7;;
74483;SDS011;62942;52.462;10.846;2022-08-19T00:23:52;13.5;;;18.9;;
74483;SDS011;62942;52.462;10.846;2022-08-19T00:25:02;13.9;;;21.2;;
74483;SDS011;62942;52.462;10.846;2022-08-19T00:26:02;13.5;;;18.6;;
74483;SDS011;62942;52.462;10.846;2022-08-19T00:27:12;13.7;;;18.2;;
74483;SDS011;62942;52.462;10.846;2022-08-19T00:28:22;13.3;;;18.2;;
74483;SDS011;62942;52.462;10.846;2022-08-19T00:29:22;13.4;;;19;;
74483;SDS011;62942;52.462;10.846;2022-08-19T00:30:22;13.1;;;18.5;;
74483;SDS011;62942;52.462;10.846;2022-08-19T00:31:32;13.1;;;17.7;;
74483;SDS011;62942;52.462;10.846;2022-08-19T00:32:42;12.9;;;16.7;;
74483;SDS011;62942;52.462;10.846;2022-08-19T00:33:42;13.1;;;17.9;;
74483;SDS011;62942;52.462;10.846;2022-08-19T00:34:52;12.4;;;16.8;;
74483;SDS011;62942;52.462;10.846;2022-08-19T00:35:52;12.9;;;19.3;;
74483;SDS011;62942;52.462;10.846;2022-08-19T00:37:02;13.3;;;18.9;;
74483;SDS011;62942;52.462;10.846;2022-08-19T00:38:12;12.7;;;17.6;;
74483;SDS011;62942;52.462;10.846;2022-08-19T00:39:22;13.2;;;18.3;;
74483;SDS011;62942;52.462;10.846;2022-08-19T00:40:22;12.3;;;18.2;;
74483;SDS011;62942;52.462;10.846;2022-08-19T00:41:32;12.9;;;16.6;;
74483;SDS011;62942;52.462;10.846;2022-08-19T00:42:32;12.6;;;17.9;;
74483;SDS011;62942;52.462;10.846;2022-08-19T00:43:42;12.6;;;18.4;;
74483;SDS011;62942;52.462;10.846;2022-08-19T00:44:52;13.1;;;19;;
74483;SDS011;62942;52.462;10.846;2022-08-19T00:45:52;13;;;18.8;;
74483;SDS011;62942;52.462;10.846;2022-08-19T00:47:02;12.7;;;18.4;;
74483;SDS011;62942;52.462;10.846;2022-08-19T00:48:12;13.3;;;18.1;;
74483;SDS011;62942;52.462;10.846;2022-08-19T00:49:14;12.9;;;17.7;;
74483;SDS011;62942;52.462;10.846;2022-08-19T00:50:13;13;;;17.9;;
74483;SDS011;62942;52.462;10.846;2022-08-19T00:51:12;12.8;;;18.5;;
74483;SDS011;62942;52.462;10.846;2022-08-19T00:52:13;12.6;;;16.6;;
74483;SDS011;62942;52.462;10.846;2022-08-19T00:53:23;12.9;;;18.5;;
74483;SDS011;62942;52.462;10.846;2022-08-19T00:54:22;12.6;;;17.4;;
74483;SDS011;62942;52.462;10.846;2022-08-19T00:55:32;12.7;;;18.3;;
74483;SDS011;62942;52.462;10.846;2022-08-19T00:56:42;12.3;;;17;;
74483;SDS011;62942;52.462;10.846;2022-08-19T00:57:44;12.5;;;17.9;;
74483;SDS011;62942;52.462;10.846;2022-08-19T00:58:52;12.3;;;16.1;;
74483;SDS011;62942;52.462;10.846;2022-08-19T01:00:05;12.3;;;15;;
74483;SDS011;62942;52.462;10.846;2022-08-19T01:01:02;12.4;;;18.1;;
74483;SDS011;62942;52.462;10.846;2022-08-19T01:02:12;12.4;;;16.7;;
74483;SDS011;62942;52.462;10.846;2022-08-19T01:03:22;12.7;;;19.2;;
74483;SDS011;62942;52.462;10.846;2022-08-19T01:04:22;12.3;;;18.9;;
74483;SDS011;62942;52.462;10.846;2022-08-19T01:05:32;12.6;;;19.5;;
74483;SDS011;62942;52.462;10.846;2022-08-19T01:06:42;12.5;;;18.4;;
74483;SDS011;62942;52.462;10.846;2022-08-19T01:07:42;12.3;;;16.9;;
74483;SDS011;62942;52.462;10.846;2022-08-19T01:08:53;12.8;;;17.3;;
74483;SDS011;62942;52.462;10.846;2022-08-19T01:10:02;12.5;;;17.3;;
74483;SDS011;62942;52.462;10.846;2022-08-19T01:11:02;12.8;;;18.9;;
74483;SDS011;62942;52.462;10.846;2022-08-19T01:12:02;12.6;;;19.6;;
74483;SDS011;62942;52.462;10.846;2022-08-19T01:13:13;11.8;;;18;;
74483;SDS011;62942;52.462;10.846;2022-08-19T01:14:22;12.6;;;16;;
74483;SDS011;62942;52.462;10.846;2022-08-19T01:15:23;12.8;;;18.6;;
74483;SDS011;62942;52.462;10.846;2022-08-19T01:16:32;12.7;;;17.8;;
74483;SDS011;62942;52.462;10.846;2022-08-19T01:17:42;12.4;;;18.1;;
74483;SDS011;62942;52.462;10.846;2022-08-19T01:18:42;12.1;;;16.8;;
74483;SDS011;62942;52.462;10.846;2022-08-19T01:19:42;12.3;;;16.5;;
74483;SDS011;62942;52.462;10.846;2022-08-19T01:20:52;11.9;;;16.6;;
74483;SDS011;62942;52.462;10.846;2022-08-19T01:21:55;12.1;;;18.1;;
74483;SDS011;62942;52.462;10.846;2022-08-19T01:23:02;12.1;;;17.5;;
74483;SDS011;62942;52.462;10.846;2022-08-19T01:24:02;11.9;;;16.2;;
74483;SDS011;62942;52.462;10.846;2022-08-19T01:25:12;12;;;16.7;;
74483;SDS011;62942;52.462;10.846;2022-08-19T01:26:23;12.1;;;16.5;;
74483;SDS011;62942;52.462;10.846;2022-08-19T01:27:22;12.1;;;19.5;;
74483;SDS011;62942;52.462;10.846;2022-08-19T01:28:32;11.9;;;17.5;;
74483;SDS011;62942;52.462;10.846;2022-08-19T01:29:32;11.8;;;15.8;;
74483;SDS011;62942;52.462;10.846;2022-08-19T01:30:42;11.9;;;17.1;;
74483;SDS011;62942;52.462;10.846;2022-08-19T01:31:42;11.6;;;19.1;;
74483;SDS011;62942;52.462;10.846;2022-08-19T01:32:42;11.6;;;16.5;;
74483;SDS011;62942;52.462;10.846;2022-08-19T01:33:52;11.6;;;17;;
74483;SDS011;62942;52.462;10.846;2022-08-19T01:35:02;11.8;;;15.5;;
74483;SDS011;62942;52.462;10.846;2022-08-19T01:36:13;11.5;;;15.8;;
74483;SDS011;62942;52.462;10.846;2022-08-19T01:37:22;12.4;;;17.9;;
74483;SDS011;62942;52.462;10.846;2022-08-19T01:38:34;12.3;;;17.8;;
74483;SDS011;62942;52.462;10.846;2022-08-19T01:39:42;12.2;;;16.7;;
74483;SDS011;62942;52.462;10.846;2022-08-19T01:40:52;12.1;;;18.2;;
74483;SDS011;62942;52.462;10.846;2022-08-19T01:42:02;12.2;;;17.5;;
74483;SDS011;62942;52.462;10.846;2022-08-19T01:43:02;12;;;15.5;;
74483;SDS011;62942;52.462;10.846;2022-08-19T01:44:12;12.6;;;20.6;;
74483;SDS011;62942;52.462;10.846;2022-08-19T01:45:23;12.1;;;16.3;;
74483;SDS011;62942;52.462;10.846;2022-08-19T01:46:32;12.4;;;18.7;;
74483;SDS011;62942;52.462;10.846;2022-08-19T01:47:42;12.3;;;17.8;;
74483;SDS011;62942;52.462;10.846;2022-08-19T01:48:52;12.9;;;17.9;;
74483;SDS011;62942;52.462;10.846;2022-08-19T01:49:52;12.5;;;18.6;;
74483;SDS011;62942;52.462;10.846;2022-08-19T01:51:02;12.5;;;16.7;;
74483;SDS011;62942;52.462;10.846;2022-08-19T01:52:12;12.2;;;18.9;;
74483;SDS011;62942;52.462;10.846;2022-08-19T01:53:22;12.1;;;16.6;;
74483;SDS011;62942;52.462;10.846;2022-08-19T01:54:22;12.3;;;17.4;;
74483;SDS011;62942;52.462;10.846;2022-08-19T01:55:32;12.2;;;17.4;;
74483;SDS011;62942;52.462;10.846;2022-08-19T01:56:42;12.8;;;17.5;;
74483;SDS011;62942;52.462;10.846;2022-08-19T01:57:42;12.6;;;17.3;;
74483;SDS011;62942;52.462;10.846;2022-08-19T01:58:44;12.8;;;19.1;;
74483;SDS011;62942;52.462;10.846;2022-08-19T01:59:52;12.6;;;17;;
74483;SDS011;62942;52.462;10.846;2022-08-19T02:00:52;13.1;;;20.3;;
74483;SDS011;62942;52.462;10.846;2022-08-19T02:01:52;12.9;;;17.5;;
74483;SDS011;62942;52.462;10.846;2022-08-19T02:03:02;12.7;;;17.9;;
74483;SDS011;62942;52.462;10.846;2022-08-19T02:04:12;13.2;;;18.8;;
74483;SDS011;62942;52.462;10.846;2022-08-19T02:05:12;12.8;;;18;;
74483;SDS011;62942;52.462;10.846;2022-08-19T02:06:12;12.5;;;18.6;;
74483;SDS011;62942;52.462;10.846;2022-08-19T02:07:22;13.2;;;18.1;;
74483;SDS011;62942;52.462;10.846;2022-08-19T02:08:33;12.8;;;17.3;;
74483;SDS011;62942;52.462;10.846;2022-08-19T02:09:42;12.7;;;18.2;;
74483;SDS011;62942;52.462;10.846;2022-08-19T02:10:52;12.5;;;17.9;;
74483;SDS011;62942;52.462;10.846;2022-08-19T02:12:02;12.9;;;17.9;;
74483;SDS011;62942;52.462;10.846;2022-08-19T02:13:12;12.8;;;18.2;;
74483;SDS011;62942;52.462;10.846;2022-08-19T02:14:22;12.4;;;18.6;;
74483;SDS011;62942;52.462;10.846;2022-08-19T02:15:32;12.2;;;15.2;;
74483;SDS011;62942;52.462;10.846;2022-08-19T02:16:42;12.7;;;19.9;;
74483;SDS011;62942;52.462;10.846;2022-08-19T02:17:52;12.9;;;17.1;;
74483;SDS011;62942;52.462;10.846;2022-08-19T02:19:02;12.3;;;17.2;;
74483;SDS011;62942;52.462;10.846;2022-08-19T02:20:02;12.6;;;18.4;;
74483;SDS011;62942;52.462;10.846;2022-08-19T02:21:12;12.6;;;18.8;;
74483;SDS011;62942;52.462;10.846;2022-08-19T02:22:22;13;;;19.7;;
74483;SDS011;62942;52.462;10.846;2022-08-19T02:23:22;12.8;;;17.2;;
74483;SDS011;62942;52.462;10.846;2022-08-19T02:24:32;12.7;;;18;;
74483;SDS011;62942;52.462;10.846;2022-08-19T02:25:42;12.9;;;17.1;;
74483;SDS011;62942;52.462;10.846;2022-08-19T02:26:42;12.9;;;20;;
74483;SDS011;62942;52.462;10.846;2022-08-19T02:27:42;13;;;18.1;;
74483;SDS011;62942;52.462;10.846;2022-08-19T02:28:52;12.4;;;17.2;;
74483;SDS011;62942;52.462;10.846;2022-08-19T02:29:52;12.7;;;18;;
74483;SDS011;62942;52.462;10.846;2022-08-19T02:31:02;12.7;;;18;;
74483;SDS011;62942;52.462;10.846;2022-08-19T02:32:02;13.1;;;19.4;;
74483;SDS011;62942;52.462;10.846;2022-08-19T02:33:12;12.9;;;16.8;;
74483;SDS011;62942;52.462;10.846;2022-08-19T02:34:22;12.4;;;18.4;;
74483;SDS011;62942;52.462;10.846;2022-08-19T02:35:32;12.9;;;18.5;;
74483;SDS011;62942;52.462;10.846;2022-08-19T02:36:42;12.8;;;16.5;;
74483;SDS011;62942;52.462;10.846;2022-08-19T02:37:42;12.5;;;16.9;;
74483;SDS011;62942;52.462;10.846;2022-08-19T02:38:52;12.8;;;18;;
74483;SDS011;62942;52.462;10.846;2022-08-19T02:39:52;12.4;;;17.6;;
74483;SDS011;62942;52.462;10.846;2022-08-19T02:41:02;12.3;;;17.7;;
74483;SDS011;62942;52.462;10.846;2022-08-19T02:42:12;12.9;;;17.7;;
74483;SDS011;62942;52.462;10.846;2022-08-19T02:43:12;13.3;;;20.2;;
74483;SDS011;62942;52.462;10.846;2022-08-19T02:44:22;13;;;16.7;;
74483;SDS011;62942;52.462;10.846;2022-08-19T02:45:32;13.3;;;17.6;;
74483;SDS011;62942;52.462;10.846;2022-08-19T02:46:32;13.8;;;18.4;;
74483;SDS011;62942;52.462;10.846;2022-08-19T02:47:32;13.7;;;20.8;;
74483;SDS011;62942;52.462;10.846;2022-08-19T02:48:42;13.4;;;19.8;;
74483;SDS011;62942;52.462;10.846;2022-08-19T02:49:52;13.9;;;20.2;;
74483;SDS011;62942;52.462;10.846;2022-08-19T02:50:52;13.3;;;17.5;;
74483;SDS011;62942;52.462;10.846;2022-08-19T02:52:02;13.2;;;19.3;;
74483;SDS011;62942;52.462;10.846;2022-08-19T02:53:12;13.3;;;17.3;;
74483;SDS011;62942;52.462;10.846;2022-08-19T02:54:22;13.2;;;19.1;;
74483;SDS011;62942;52.462;10.846;2022-08-19T02:55:32;13.1;;;18.2;;
74483;SDS011;62942;52.462;10.846;2022-08-19T02:56:33;13;;;20.1;;
74483;SDS011;62942;52.462;10.846;2022-08-19T02:57:42;13;;;18.9;;
74483;SDS011;62942;52.462;10.846;2022-08-19T02:58:42;12.6;;;17.7;;
74483;SDS011;62942;52.462;10.846;2022-08-19T02:59:52;13;;;18.3;;
74483;SDS011;62942;52.462;10.846;2022-08-19T03:00:52;13.1;;;17.2;;
74483;SDS011;62942;52.462;10.846;2022-08-19T03:02:02;12.9;;;17.7;;
74483;SDS011;62942;52.462;10.846;2022-08-19T03:03:02;12.6;;;17.1;;
74483;SDS011;62942;52.462;10.846;2022-08-19T03:04:12;13;;;18.6;;
74483;SDS011;62942;52.462;10.846;2022-08-19T03:05:12;12.3;;;16.9;;
74483;SDS011;62942;52.462;10.846;2022-08-19T03:06:22;12.1;;;17.9;;
74483;SDS011;62942;52.462;10.846;2022-08-19T03:07:32;12.2;;;18.7;;
74483;SDS011;62942;52.462;10.846;2022-08-19T03:08:42;12.4;;;18.1;;
74483;SDS011;62942;52.462;10.846;2022-08-19T03:09:52;12.6;;;18.4;;
74483;SDS011;62942;52.462;10.846;2022-08-19T03:10:52;11.8;;;16.5;;
74483;SDS011;62942;52.462;10.846;2022-08-19T03:12:02;11.8;;;15.2;;
74483;SDS011;62942;52.462;10.846;2022-08-19T03:13:02;12.1;;;17.5;;
74483;SDS011;62942;52.462;10.846;2022-08-19T03:14:12;11.9;;;16.3;;
74483;SDS011;62942;52.462;10.846;2022-08-19T03:15:22;12;;;18.2;;
74483;SDS011;62942;52.462;10.846;2022-08-19T03:16:37;12.1;;;16.1;;
74483;SDS011;62942;52.462;10.846;2022-08-19T03:17:42;12;;;17.8;;
74483;SDS011;62942;52.462;10.846;2022-08-19T03:18:52;12.2;;;17;;
74483;SDS011;62942;52.462;10.846;2022-08-19T03:20:02;12.5;;;19;;
74483;SDS011;62942;52.462;10.846;2022-08-19T03:21:02;12.4;;;17.9;;
74483;SDS011;62942;52.462;10.846;2022-08-19T03:22:12;12.5;;;17.8;;
74483;SDS011;62942;52.462;10.846;2022-08-19T03:23:12;12.2;;;16.1;;
74483;SDS011;62942;52.462;10.846;2022-08-19T03:24:22;12.1;;;17.2;;
74483;SDS011;62942;52.462;10.846;2022-08-19T03:25:22;12.4;;;19.3;;
74483;SDS011;62942;52.462;10.846;2022-08-19T03:26:32;12.2;;;17.9;;
74483;SDS011;62942;52.462;10.846;2022-08-19T03:27:42;12.3;;;17.9;;
74483;SDS011;62942;52.462;10.846;2022-08-19T03:28:52;12.5;;;20.4;;
74483;SDS011;62942;52.462;10.846;2022-08-19T03:29:52;12.4;;;18.1;;
74483;SDS011;62942;52.462;10.846;2022-08-19T03:31:02;12.5;;;18.4;;
74483;SDS011;62942;52.462;10.846;2022-08-19T03:32:12;12;;;17.2;;
74483;SDS011;62942;52.462;10.846;2022-08-19T03:33:22;12.6;;;17;;
74483;SDS011;62942;52.462;10.846;2022-08-19T03:34:33;12.8;;;17.6;;
74483;SDS011;62942;52.462;10.846;2022-08-19T03:35:32;12.4;;;17.3;;
74483;SDS011;62942;52.462;10.846;2022-08-19T03:36:42;12.2;;;17;;
74483;SDS011;62942;52.462;10.846;2022-08-19T03:37:42;12.3;;;18.6;;
74483;SDS011;62942;52.462;10.846;2022-08-19T03:38:54;12.5;;;18.4;;
74483;SDS011;62942;52.462;10.846;2022-08-19T03:39:52;12.1;;;16.5;;
74483;SDS011;62942;52.462;10.846;2022-08-19T03:41:02;12.1;;;17.3;;
74483;SDS011;62942;52.462;10.846;2022-08-19T03:42:12;12.9;;;19.5;;
74483;SDS011;62942;52.462;10.846;2022-08-19T03:43:22;12.1;;;17.9;;
74483;SDS011;62942;52.462;10.846;2022-08-19T03:44:32;12;;;18;;
74483;SDS011;62942;52.462;10.846;2022-08-19T03:45:42;12.1;;;17.3;;
74483;SDS011;62942;52.462;10.846;2022-08-19T03:46:53;12.5;;;17.1;;
74483;SDS011;62942;52.462;10.846;2022-08-19T03:48:02;12.2;;;18.2;;
74483;SDS011;62942;52.462;10.846;2022-08-19T03:49:12;12.6;;;18.6;;
74483;SDS011;62942;52.462;10.846;2022-08-19T03:50:22;12.3;;;17.5;;
74483;SDS011;62942;52.462;10.846;2022-08-19T03:51:23;12.2;;;17.7;;
74483;SDS011;62942;52.462;10.846;2022-08-19T03:52:32;12.1;;;18.1;;
74483;SDS011;62942;52.462;10.846;2022-08-19T03:53:42;12.3;;;17.9;;
74483;SDS011;62942;52.462;10.846;2022-08-19T03:54:52;12.2;;;16.6;;
74483;SDS011;62942;52.462;10.846;2022-08-19T03:56:02;12.1;;;16.4;;
74483;SDS011;62942;52.462;10.846;2022-08-19T03:57:12;11.8;;;16.6;;
74483;SDS011;62942;52.462;10.846;2022-08-19T03:58:22;12;;;18.1;;
74483;SDS011;62942;52.462;10.846;2022-08-19T03:59:33;11.7;;;17.1;;
74483;SDS011;62942;52.462;10.846;2022-08-19T04:00:42;11.8;;;17.3;;
74483;SDS011;62942;52.462;10.846;2022-08-19T04:01:52;12.4;;;18.5;;
74483;SDS011;62942;52.462;10.846;2022-08-19T04:02:52;11.7;;;17.3;;
74483;SDS011;62942;52.462;10.846;2022-08-19T04:04:02;11.8;;;17.5;;
74483;SDS011;62942;52.462;10.846;2022-08-19T04:05:02;11.2;;;17.8;;
74483;SDS011;62942;52.462;10.846;2022-08-19T04:06:12;11.7;;;15.5;;
74483;SDS011;62942;52.462;10.846;2022-08-19T04:07:12;11.3;;;17.3;;
74483;SDS011;62942;52.462;10.846;2022-08-19T04:08:22;11.5;;;16.8;;
74483;SDS011;62942;52.462;10.846;2022-08-19T04:09:33;11.3;;;17.1;;
74483;SDS011;62942;52.462;10.846;2022-08-19T04:10:34;10.9;;;17.5;;
74483;SDS011;62942;52.462;10.846;2022-08-19T04:11:42;11.6;;;18.7;;
74483;SDS011;62942;52.462;10.846;2022-08-19T04:12:41;11.3;;;16.7;;
74483;SDS011;62942;52.462;10.846;2022-08-19T04:13:52;11.6;;;16.2;;
74483;SDS011;62942;52.462;10.846;2022-08-19T04:15:02;11.1;;;16;;
74483;SDS011;62942;52.462;10.846;2022-08-19T04:16:02;11.1;;;15.6;;
74483;SDS011;62942;52.462;10.846;2022-08-19T04:17:12;11.5;;;18;;
74483;SDS011;62942;52.462;10.846;2022-08-19T04:18:12;11.2;;;16.1;;
74483;SDS011;62942;52.462;10.846;2022-08-19T04:19:21;10.6;;;14.4;;
74483;SDS011;62942;52.462;10.846;2022-08-19T04:20:22;11.1;;;17.1;;
74483;SDS011;62942;52.462;10.846;2022-08-19T04:21:31;11.1;;;16.7;;
74483;SDS011;62942;52.462;10.846;2022-08-19T04:22:32;10.9;;;15.2;;
74483;SDS011;62942;52.462;10.846;2022-08-19T04:23:41;10.8;;;17.8;;
74483;SDS011;62942;52.462;10.846;2022-08-19T04:24:42;10.8;;;16.4;;
74483;SDS011;62942;52.462;10.846;2022-08-19T04:25:51;10.9;;;16.2;;
74483;SDS011;62942;52.462;10.846;2022-08-19T04:26:52;11;;;17.4;;
74483;SDS011;62942;52.462;10.846;2022-08-19T04:28:02;11.1;;;18.3;;
74483;SDS011;62942;52.462;10.846;2022-08-19T04:29:13;10.8;;;15.3;;
74483;SDS011;62942;52.462;10.846;2022-08-19T04:30:22;10.6;;;16.9;;
74483;SDS011;62942;52.462;10.846;2022-08-19T04:31:22;11.1;;;17;;
74483;SDS011;62942;52.462;10.846;2022-08-19T04:32:32;10.9;;;14.8;;
74483;SDS011;62942;52.462;10.846;2022-08-19T04:33:32;10.4;;;14.8;;
74483;SDS011;62942;52.462;10.846;2022-08-19T04:34:42;10.6;;;15.7;;
74483;SDS011;62942;52.462;10.846;2022-08-19T04:35:43;10.7;;;14.6;;
74483;SDS011;62942;52.462;10.846;2022-08-19T04:36:53;10.8;;;16.3;;
74483;SDS011;62942;52.462;10.846;2022-08-19T04:38:02;10.5;;;13.6;;
74483;SDS011;62942;52.462;10.846;2022-08-19T04:39:13;10.3;;;16;;
74483;SDS011;62942;52.462;10.846;2022-08-19T04:40:21;10.4;;;16.9;;
74483;SDS011;62942;52.462;10.846;2022-08-19T04:41:32;10.7;;;15.8;;
74483;SDS011;62942;52.462;10.846;2022-08-19T04:42:41;10.4;;;13.9;;
74483;SDS011;62942;52.462;10.846;2022-08-19T04:43:41;10.4;;;16.5;;
74483;SDS011;62942;52.462;10.846;2022-08-19T04:44:51;10.1;;;18.8;;
74483;SDS011;62942;52.462;10.846;2022-08-19T04:46:04;10.3;;;15.8;;
74483;SDS011;62942;52.462;10.846;2022-08-19T04:47:12;10.3;;;14.8;;
74483;SDS011;62942;52.462;10.846;2022-08-19T04:48:22;9.8;;;14.3;;
74483;SDS011;62942;52.462;10.846;2022-08-19T04:49:22;10;;;15.2;;
74483;SDS011;62942;52.462;10.846;2022-08-19T04:50:31;10;;;16.3;;
74483;SDS011;62942;52.462;10.846;2022-08-19T04:51:32;10.2;;;15.3;;
74483;SDS011;62942;52.462;10.846;2022-08-19T04:52:42;9.9;;;17.4;;
74483;SDS011;62942;52.462;10.846;2022-08-19T04:53:42;10.1;;;15.2;;
74483;SDS011;62942;52.462;10.846;2022-08-19T04:54:52;10.3;;;15.3;;
74483;SDS011;62942;52.462;10.846;2022-08-19T04:56:04;9.9;;;14.2;;
74483;SDS011;62942;52.462;10.846;2022-08-19T04:57:11;9.8;;;15.1;;
74483;SDS011;62942;52.462;10.846;2022-08-19T04:58:22;9.7;;;13.8;;
74483;SDS011;62942;52.462;10.846;2022-08-19T04:59:21;9.8;;;16.1;;
74483;SDS011;62942;52.462;10.846;2022-08-19T05:00:31;10.2;;;15.1;;
74483;SDS011;62942;52.462;10.846;2022-08-19T05:01:32;9.9;;;16.7;;
74483;SDS011;62942;52.462;10.846;2022-08-19T05:02:42;9.3;;;13.1;;
74483;SDS011;62942;52.462;10.846;2022-08-19T05:03:41;9.8;;;15.3;;
74483;SDS011;62942;52.462;10.846;2022-08-19T05:04:55;9.5;;;14.6;;
74483;SDS011;62942;52.462;10.846;2022-08-19T05:05:51;9.7;;;14.5;;
74483;SDS011;62942;52.462;10.846;2022-08-19T05:07:01;9.4;;;14.2;;
74483;SDS011;62942;52.462;10.846;2022-08-19T05:08:02;9.3;;;13.7;;
74483;SDS011;62942;52.462;10.846;2022-08-19T05:09:11;9.3;;;13.5;;
74483;SDS011;62942;52.462;10.846;2022-08-19T05:10:12;9.7;;;14.2;;
74483;SDS011;62942;52.462;10.846;2022-08-19T05:11:22;9.3;;;13.3;;
74483;SDS011;62942;52.462;10.846;2022-08-19T05:12:21;9;;;12.5;;
74483;SDS011;62942;52.462;10.846;2022-08-19T05:13:31;8.9;;;13.1;;
74483;SDS011;62942;52.462;10.846;2022-08-19T05:14:41;9.3;;;14.9;;
74483;SDS011;62942;52.462;10.846;2022-08-19T05:15:42;9.3;;;14.1;;
74483;SDS011;62942;52.462;10.846;2022-08-19T05:16:51;9.1;;;13.7;;
74483;SDS011;62942;52.462;10.846;2022-08-19T05:17:51;9;;;13.2;;
74483;SDS011;62942;52.462;10.846;2022-08-19T05:19:01;9.2;;;13.9;;
74483;SDS011;62942;52.462;10.846;2022-08-19T05:20:02;8.9;;;13.5;;
74483;SDS011;62942;52.462;10.846;2022-08-19T05:21:12;8.8;;;14.3;;
74483;SDS011;62942;52.462;10.846;2022-08-19T05:22:11;9.4;;;13.4;;
74483;SDS011;62942;52.462;10.846;2022-08-19T05:23:21;8.6;;;13.6;;
74483;SDS011;62942;52.462;10.846;2022-08-19T05:24:22;9.3;;;13.1;;
74483;SDS011;62942;52.462;10.846;2022-08-19T05:25:31;9.4;;;13.7;;
74483;SDS011;62942;52.462;10.846;2022-08-19T05:26:31;9.1;;;14.1;;
74483;SDS011;62942;52.462;10.846;2022-08-19T05:27:42;9.4;;;13.2;;
74483;SDS011;62942;52.462;10.846;2022-08-19T05:28:41;9.4;;;14.8;;
74483;SDS011;62942;52.462;10.846;2022-08-19T05:29:51;9;;;14.4;;
74483;SDS011;62942;52.462;10.846;2022-08-19T05:31:01;9.3;;;12;;
74483;SDS011;62942;52.462;10.846;2022-08-19T05:32:02;9.6;;;13.8;;
74483;SDS011;62942;52.462;10.846;2022-08-19T05:33:11;9.3;;;14.3;;
74483;SDS011;62942;52.462;10.846;2022-08-19T05:34:12;9.7;;;13.7;;
74483;SDS011;62942;52.462;10.846;2022-08-19T05:35:14;9.3;;;13.6;;
74483;SDS011;62942;52.462;10.846;2022-08-19T05:36:21;9.5;;;12.9;;
74483;SDS011;62942;52.462;10.846;2022-08-19T05:37:33;9.5;;;15;;
74483;SDS011;62942;52.462;10.846;2022-08-19T05:38:31;9.9;;;15.1;;
74483;SDS011;62942;52.462;10.846;2022-08-19T05:39:41;9.4;;;14;;
74483;SDS011;62942;52.462;10.846;2022-08-19T05:40:52;9.5;;;14;;
74483;SDS011;62942;52.462;10.846;2022-08-19T05:41:53;9.6;;;13.4;;
74483;SDS011;62942;52.462;10.846;2022-08-19T05:43:02;9.4;;;15.4;;
74483;SDS011;62942;52.462;10.846;2022-08-19T05:44:03;9.5;;;13.2;;
74483;SDS011;62942;52.462;10.846;2022-08-19T05:45:11;9.3;;;14.7;;
74483;SDS011;62942;52.462;10.846;2022-08-19T05:46:16;9.4;;;13.1;;
74483;SDS011;62942;52.462;10.846;2022-08-19T05:47:21;9.2;;;13.8;;
74483;SDS011;62942;52.462;10.846;2022-08-19T05:48:31;9.5;;;14.4;;
74483;SDS011;62942;52.462;10.846;2022-08-19T05:49:32;9.5;;;14.6;;
74483;SDS011;62942;52.462;10.846;2022-08-19T05:50:42;9.2;;;13.7;;
74483;SDS011;62942;52.462;10.846;2022-08-19T05:51:52;9;;;15;;
74483;SDS011;62942;52.462;10.846;2022-08-19T05:52:52;8.9;;;13.4;;
74483;SDS011;62942;52.462;10.846;2022-08-19T05:53:51;8.6;;;12.5;;
74483;SDS011;62942;52.462;10.846;2022-08-19T05:55:02;8.7;;;14;;
74483;SDS011;62942;52.462;10.846;2022-08-19T05:56:03;8.5;;;16.1;;
74483;SDS011;62942;52.462;10.846;2022-08-19T05:57:11;8.7;;;13.5;;
74483;SDS011;62942;52.462;10.846;2022-08-19T05:58:21;8.1;;;10.8;;
74483;SDS011;62942;52.462;10.846;2022-08-19T05:59:22;8.4;;;11.7;;
74483;SDS011;62942;52.462;10.846;2022-08-19T06:00:31;8.5;;;12.3;;
74483;SDS011;62942;52.462;10.846;2022-08-19T06:01:31;8.5;;;13.6;;
74483;SDS011;62942;52.462;10.846;2022-08-19T06:02:41;8.7;;;12.5;;
74483;SDS011;62942;52.462;10.846;2022-08-19T06:03:41;8.9;;;14.4;;
74483;SDS011;62942;52.462;10.846;2022-08-19T06:04:51;8.4;;;15.2;;
74483;SDS011;62942;52.462;10.846;2022-08-19T06:05:51;8.5;;;12.1;;
74483;SDS011;62942;52.462;10.846;2022-08-19T06:07:01;8.6;;;14.3;;
74483;SDS011;62942;52.462;10.846;2022-08-19T06:08:01;8.4;;;11.9;;
74483;SDS011;62942;52.462;10.846;2022-08-19T06:09:11;8.9;;;13.4;;
74483;SDS011;62942;52.462;10.846;2022-08-19T06:10:21;9.2;;;13.1;;
74483;SDS011;62942;52.462;10.846;2022-08-19T06:11:23;9;;;13.9;;
74483;SDS011;62942;52.462;10.846;2022-08-19T06:12:32;9.1;;;14.2;;
74483;SDS011;62942;52.462;10.846;2022-08-19T06:13:41;8.8;;;13.5;;
74483;SDS011;62942;52.462;10.846;2022-08-19T06:14:51;8.8;;;13.7;;
74483;SDS011;62942;52.462;10.846;2022-08-19T06:16:01;8.5;;;14.2;;
74483;SDS011;62942;52.462;10.846;2022-08-19T06:17:01;8.9;;;15;;
74483;SDS011;62942;52.462;10.846;2022-08-19T06:18:12;8.7;;;13.5;;
74483;SDS011;62942;52.462;10.846;2022-08-19T06:19:12;8.7;;;13.6;;
74483;SDS011;62942;52.462;10.846;2022-08-19T06:20:21;8.8;;;15.1;;
74483;SDS011;62942;52.462;10.846;2022-08-19T06:21:32;9.2;;;16.4;;
74483;SDS011;62942;52.462;10.846;2022-08-19T06:22:42;8.6;;;12.1;;
74483;SDS011;62942;52.462;10.846;2022-08-19T06:23:51;8.5;;;13.6;;
74483;SDS011;62942;52.462;10.846;2022-08-19T06:25:02;8.8;;;13.4;;
74483;SDS011;62942;52.462;10.846;2022-08-19T06:26:11;8.5;;;13.1;;
74483;SDS011;62942;52.462;10.846;2022-08-19T06:27:11;8.6;;;13.4;;
74483;SDS011;62942;52.462;10.846;2022-08-19T06:28:21;8.7;;;15.5;;
74483;SDS011;62942;52.462;10.846;2022-08-19T06:29:31;8.7;;;13.3;;
74483;SDS011;62942;52.462;10.846;2022-08-19T06:30:31;8.7;;;13.6;;
74483;SDS011;62942;52.462;10.846;2022-08-19T06:31:42;8.6;;;12.7;;
74483;SDS011;62942;52.462;10.846;2022-08-19T06:32:41;9;;;15.2;;
74483;SDS011;62942;52.462;10.846;2022-08-19T06:33:51;9.4;;;15.8;;
74483;SDS011;62942;52.462;10.846;2022-08-19T06:35:01;9.2;;;14.9;;
74483;SDS011;62942;52.462;10.846;2022-08-19T06:36:19;9.4;;;15.4;;
74483;SDS011;62942;52.462;10.846;2022-08-19T06:37:21;9.6;;;15.2;;